sensor_id;sensor_type;location;lat;lon;timestamp;P1;durP1;ratioP1;P2;durP2;ratioP2
66707;SDS011;53622;0.000;0.000;2023-05-19T00:01:35;1.80;;;1.33;;
66707;SDS011;53622;0.000;0.000;2023-05-19T00:04:07;2.03;;;1.80;;
66707;SDS011;53622;0.000;0.000;2023-05-19T00:06:38;2.03;;;1.70;;
66707;SDS011;53622;0.000;0.000;2023-05-19T00:09:08;1.60;;;1.50;;
66707;SDS011;53622;0.000;0.000;2023-05-19T00:11:38;1.60;;;1.50;;
66707;SDS011;53622;0.000;0.000;2023-05-19T00:14:08;1.98;;;1.60;;
66707;SDS011;53622;0.000;0.000;2023-05-19T00:16:38;1.98;;;1.80;;
66707;SDS011;53622;0.000;0.000;2023-05-19T00:19:09;1.80;;;1.67;;
66707;SDS011;53622;0.000;0.000;2023-05-19T00:21:39;1.70;;;1.60;;
66707;SDS011;53622;0.000;0.000;2023-05-19T00:24:08;1.65;;;1.55;;
66707;SDS011;53622;0.000;0.000;2023-05-19T00:26:37;1.42;;;1.33;;
66707;SDS011;53622;0.000;0.000;2023-05-19T00:29:06;1.60;;;1.50;;
66707;SDS011;53622;0.000;0.000;2023-05-19T00:31:36;1.55;;;1.45;;
66707;SDS011;53622;0.000;0.000;2023-05-19T00:34:05;2.88;;;1.70;;
66707;SDS011;53622;0.000;0.000;2023-05-19T00:36:36;1.73;;;1.60;;
66707;SDS011;53622;0.000;0.000;2023-05-19T00:39:05;1.80;;;1.38;;
66707;SDS011;53622;0.000;0.000;2023-05-19T00:41:34;2.03;;;1.77;;
66707;SDS011;53622;0.000;0.000;2023-05-19T00:44:05;2.08;;;1.88;;
66707;SDS011;53622;0.000;0.000;2023-05-19T00:46:34;2.00;;;1.70;;
66707;SDS011;53622;0.000;0.000;2023-05-19T00:49:04;1.50;;;1.40;;
66707;SDS011;53622;0.000;0.000;2023-05-19T00:51:33;2.25;;;1.52;;
66707;SDS011;53622;0.000;0.000;2023-05-19T00:54:05;1.77;;;1.52;;
66707;SDS011;53622;0.000;0.000;2023-05-19T00:56:34;1.60;;;1.50;;
66707;SDS011;53622;0.000;0.000;2023-05-19T00:59:03;2.10;;;1.83;;
66707;SDS011;53622;0.000;0.000;2023-05-19T01:01:33;1.63;;;1.52;;
66707;SDS011;53622;0.000;0.000;2023-05-19T01:04:03;1.63;;;1.52;;
66707;SDS011;53622;0.000;0.000;2023-05-19T01:06:37;2.00;;;1.50;;
66707;SDS011;53622;0.000;0.000;2023-05-19T01:09:06;2.17;;;1.50;;
66707;SDS011;53622;0.000;0.000;2023-05-19T01:11:36;1.70;;;1.60;;
66707;SDS011;53622;0.000;0.000;2023-05-19T01:14:05;2.08;;;1.60;;
66707;SDS011;53622;0.000;0.000;2023-05-19T01:16:35;1.60;;;1.50;;
66707;SDS011;53622;0.000;0.000;2023-05-19T01:19:13;1.70;;;1.60;;
66707;SDS011;53622;0.000;0.000;2023-05-19T01:22:17;1.67;;;1.58;;
66707;SDS011;53622;0.000;0.000;2023-05-19T01:30:56;2.13;;;1.52;;
66707;SDS011;53622;0.000;0.000;2023-05-19T01:33:27;1.70;;;1.60;;
66707;SDS011;53622;0.000;0.000;2023-05-19T01:35:58;1.52;;;1.42;;
66707;SDS011;53622;0.000;0.000;2023-05-19T01:38:30;1.90;;;1.80;;
66707;SDS011;53622;0.000;0.000;2023-05-19T01:41:02;1.60;;;1.50;;
66707;SDS011;53622;0.000;0.000;2023-05-19T01:43:33;1.50;;;1.40;;
66707;SDS011;53622;0.000;0.000;2023-05-19T01:46:06;1.70;;;1.60;;
66707;SDS011;53622;0.000;0.000;2023-05-19T01:48:35;1.70;;;1.60;;
66707;SDS011;53622;0.000;0.000;2023-05-19T01:51:05;1.80;;;1.70;;
66707;SDS011;53622;0.000;0.000;2023-05-19T01:53:35;1.80;;;1.63;;
66707;SDS011;53622;0.000;0.000;2023-05-19T01:56:04;1.67;;;1.58;;
66707;SDS011;53622;0.000;0.000;2023-05-19T01:58:36;1.70;;;1.60;;
66707;SDS011;53622;0.000;0.000;2023-05-19T02:01:15;2.25;;;1.55;;
66707;SDS011;53622;0.000;0.000;2023-05-19T02:03:53;1.55;;;1.45;;
66707;SDS011;53622;0.000;0.000;2023-05-19T02:06:36;2.28;;;1.50;;
66707;SDS011;53622;0.000;0.000;2023-05-19T02:09:14;1.60;;;1.50;;
66707;SDS011;53622;0.000;0.000;2023-05-19T02:11:53;1.70;;;1.60;;
66707;SDS011;53622;0.000;0.000;2023-05-19T02:14:26;1.48;;;1.38;;
66707;SDS011;53622;0.000;0.000;2023-05-19T02:17:02;1.60;;;1.50;;
66707;SDS011;53622;0.000;0.000;2023-05-19T02:19:33;2.65;;;1.70;;
66707;SDS011;53622;0.000;0.000;2023-05-19T02:22:06;1.50;;;1.40;;
66707;SDS011;53622;0.000;0.000;2023-05-19T02:24:35;1.73;;;1.63;;
66707;SDS011;53622;0.000;0.000;2023-05-19T02:27:05;1.98;;;1.88;;
66707;SDS011;53622;0.000;0.000;2023-05-19T02:29:35;2.72;;;1.65;;
66707;SDS011;53622;0.000;0.000;2023-05-19T02:32:06;1.70;;;1.40;;
66707;SDS011;53622;0.000;0.000;2023-05-19T02:34:36;1.80;;;1.70;;
66707;SDS011;53622;0.000;0.000;2023-05-19T02:37:05;5.38;;;1.90;;
66707;SDS011;53622;0.000;0.000;2023-05-19T02:39:34;1.67;;;1.58;;
66707;SDS011;53622;0.000;0.000;2023-05-19T02:42:04;1.63;;;1.48;;
66707;SDS011;53622;0.000;0.000;2023-05-19T02:44:33;1.48;;;1.38;;
66707;SDS011;53622;0.000;0.000;2023-05-19T02:47:03;1.60;;;1.50;;
66707;SDS011;53622;0.000;0.000;2023-05-19T02:49:34;1.60;;;1.50;;
66707;SDS011;53622;0.000;0.000;2023-05-19T02:52:04;1.63;;;1.52;;
66707;SDS011;53622;0.000;0.000;2023-05-19T02:54:34;1.65;;;1.55;;
66707;SDS011;53622;0.000;0.000;2023-05-19T02:57:03;1.83;;;1.73;;
66707;SDS011;53622;0.000;0.000;2023-05-19T02:59:33;1.70;;;1.60;;
66707;SDS011;53622;0.000;0.000;2023-05-19T03:02:02;2.78;;;1.40;;
66707;SDS011;53622;0.000;0.000;2023-05-19T03:04:34;1.50;;;1.40;;
66707;SDS011;53622;0.000;0.000;2023-05-19T03:07:08;1.60;;;1.50;;
66707;SDS011;53622;0.000;0.000;2023-05-19T03:09:39;1.70;;;1.60;;
66707;SDS011;53622;0.000;0.000;2023-05-19T03:12:09;2.17;;;1.60;;
66707;SDS011;53622;0.000;0.000;2023-05-19T03:14:38;1.60;;;1.50;;
66707;SDS011;53622;0.000;0.000;2023-05-19T03:17:07;2.22;;;1.58;;
66707;SDS011;53622;0.000;0.000;2023-05-19T03:19:38;1.80;;;1.70;;
66707;SDS011;53622;0.000;0.000;2023-05-19T03:22:08;2.70;;;1.50;;
66707;SDS011;53622;0.000;0.000;2023-05-19T03:24:38;2.03;;;1.65;;
66707;SDS011;53622;0.000;0.000;2023-05-19T03:27:07;1.60;;;1.50;;
66707;SDS011;53622;0.000;0.000;2023-05-19T03:29:37;1.65;;;1.52;;
66707;SDS011;53622;0.000;0.000;2023-05-19T03:32:06;1.50;;;1.40;;
66707;SDS011;53622;0.000;0.000;2023-05-19T03:34:36;2.00;;;1.80;;
66707;SDS011;53622;0.000;0.000;2023-05-19T03:37:07;1.50;;;1.40;;
66707;SDS011;53622;0.000;0.000;2023-05-19T03:39:39;1.98;;;1.80;;
66707;SDS011;53622;0.000;0.000;2023-05-19T03:42:09;3.03;;;1.65;;
66707;SDS011;53622;0.000;0.000;2023-05-19T03:44:38;1.77;;;1.67;;
66707;SDS011;53622;0.000;0.000;2023-05-19T03:47:07;1.70;;;1.60;;
66707;SDS011;53622;0.000;0.000;2023-05-19T03:49:58;1.70;;;1.60;;
66707;SDS011;53622;0.000;0.000;2023-05-19T03:52:47;1.95;;;1.75;;
66707;SDS011;53622;0.000;0.000;2023-05-19T03:55:28;1.75;;;1.65;;
66707;SDS011;53622;0.000;0.000;2023-05-19T03:57:57;2.05;;;1.70;;
66707;SDS011;53622;0.000;0.000;2023-05-19T04:00:26;1.80;;;1.70;;
66707;SDS011;53622;0.000;0.000;2023-05-19T04:02:56;1.83;;;1.73;;
66707;SDS011;53622;0.000;0.000;2023-05-19T04:05:28;1.80;;;1.70;;
66707;SDS011;53622;0.000;0.000;2023-05-19T04:07:59;1.88;;;1.77;;
66707;SDS011;53622;0.000;0.000;2023-05-19T04:10:28;2.00;;;1.80;;
66707;SDS011;53622;0.000;0.000;2023-05-19T04:12:58;2.13;;;1.65;;
66707;SDS011;53622;0.000;0.000;2023-05-19T04:15:27;1.52;;;1.42;;
66707;SDS011;53622;0.000;0.000;2023-05-19T04:17:56;2.03;;;1.80;;
66707;SDS011;53622;0.000;0.000;2023-05-19T04:20:28;2.03;;;1.77;;
66707;SDS011;53622;0.000;0.000;2023-05-19T04:22:57;3.30;;;1.50;;
66707;SDS011;53622;0.000;0.000;2023-05-19T04:25:27;1.67;;;1.58;;
66707;SDS011;53622;0.000;0.000;2023-05-19T04:27:56;1.83;;;1.73;;
66707;SDS011;53622;0.000;0.000;2023-05-19T04:30:27;1.73;;;1.63;;
66707;SDS011;53622;0.000;0.000;2023-05-19T04:32:56;2.97;;;1.77;;
66707;SDS011;53622;0.000;0.000;2023-05-19T04:35:28;1.58;;;1.48;;
66707;SDS011;53622;0.000;0.000;2023-05-19T04:37:59;1.70;;;1.60;;
66707;SDS011;53622;0.000;0.000;2023-05-19T04:40:31;1.80;;;1.70;;
66707;SDS011;53622;0.000;0.000;2023-05-19T04:43:01;2.10;;;1.85;;
66707;SDS011;53622;0.000;0.000;2023-05-19T04:45:31;1.80;;;1.70;;
66707;SDS011;53622;0.000;0.000;2023-05-19T04:48:02;2.05;;;1.85;;
66707;SDS011;53622;0.000;0.000;2023-05-19T04:50:33;1.63;;;1.52;;
66707;SDS011;53622;0.000;0.000;2023-05-19T04:53:04;1.70;;;1.60;;
66707;SDS011;53622;0.000;0.000;2023-05-19T04:55:34;2.03;;;1.92;;
66707;SDS011;53622;0.000;0.000;2023-05-19T04:58:05;1.73;;;1.60;;
66707;SDS011;53622;0.000;0.000;2023-05-19T05:00:35;2.00;;;1.80;;
66707;SDS011;53622;0.000;0.000;2023-05-19T05:03:07;1.80;;;1.70;;
66707;SDS011;53622;0.000;0.000;2023-05-19T05:05:38;2.00;;;1.80;;
66707;SDS011;53622;0.000;0.000;2023-05-19T05:08:08;2.00;;;1.83;;
66707;SDS011;53622;0.000;0.000;2023-05-19T05:10:41;1.92;;;1.73;;
66707;SDS011;53622;0.000;0.000;2023-05-19T05:13:11;1.85;;;1.75;;
66707;SDS011;53622;0.000;0.000;2023-05-19T05:15:41;1.80;;;1.70;;
66707;SDS011;53622;0.000;0.000;2023-05-19T05:18:11;2.03;;;1.80;;
66707;SDS011;53622;0.000;0.000;2023-05-19T05:20:43;1.73;;;1.55;;
66707;SDS011;53622;0.000;0.000;2023-05-19T05:23:15;1.60;;;1.50;;
66707;SDS011;53622;0.000;0.000;2023-05-19T05:25:46;1.80;;;1.70;;
66707;SDS011;53622;0.000;0.000;2023-05-19T05:28:17;2.00;;;1.90;;
66707;SDS011;53622;0.000;0.000;2023-05-19T05:30:46;1.98;;;1.88;;
66707;SDS011;53622;0.000;0.000;2023-05-19T05:33:17;1.63;;;1.52;;
66707;SDS011;53622;0.000;0.000;2023-05-19T05:35:49;1.75;;;1.65;;
66707;SDS011;53622;0.000;0.000;2023-05-19T05:38:19;1.50;;;1.40;;
66707;SDS011;53622;0.000;0.000;2023-05-19T05:40:48;2.03;;;1.83;;
66707;SDS011;53622;0.000;0.000;2023-05-19T05:43:18;1.90;;;1.80;;
66707;SDS011;53622;0.000;0.000;2023-05-19T05:45:53;1.85;;;1.50;;
66707;SDS011;53622;0.000;0.000;2023-05-19T05:48:23;1.67;;;1.58;;
66707;SDS011;53622;0.000;0.000;2023-05-19T05:50:54;2.53;;;1.73;;
66707;SDS011;53622;0.000;0.000;2023-05-19T05:53:29;1.88;;;1.77;;
66707;SDS011;53622;0.000;0.000;2023-05-19T05:56:00;1.63;;;1.52;;
66707;SDS011;53622;0.000;0.000;2023-05-19T05:58:38;3.47;;;1.75;;
66707;SDS011;53622;0.000;0.000;2023-05-19T06:01:08;1.85;;;1.60;;
66707;SDS011;53622;0.000;0.000;2023-05-19T06:03:38;1.92;;;1.80;;
66707;SDS011;53622;0.000;0.000;2023-05-19T06:06:14;1.77;;;1.67;;
66707;SDS011;53622;0.000;0.000;2023-05-19T06:08:44;1.60;;;1.50;;
66707;SDS011;53622;0.000;0.000;2023-05-19T06:11:14;3.63;;;1.65;;
66707;SDS011;53622;0.000;0.000;2023-05-19T06:13:43;1.88;;;1.52;;
66707;SDS011;53622;0.000;0.000;2023-05-19T06:16:21;3.97;;;1.70;;
66707;SDS011;53622;0.000;0.000;2023-05-19T06:18:52;2.42;;;1.77;;
66707;SDS011;53622;0.000;0.000;2023-05-19T06:21:23;5.22;;;2.30;;
66707;SDS011;53622;0.000;0.000;2023-05-19T06:23:53;4.63;;;2.58;;
66707;SDS011;53622;0.000;0.000;2023-05-19T06:26:22;5.15;;;2.40;;
66707;SDS011;53622;0.000;0.000;2023-05-19T06:28:52;3.65;;;2.00;;
66707;SDS011;53622;0.000;0.000;2023-05-19T06:31:22;5.45;;;2.28;;
66707;SDS011;53622;0.000;0.000;2023-05-19T06:33:55;6.10;;;2.20;;
66707;SDS011;53622;0.000;0.000;2023-05-19T06:36:26;6.13;;;3.53;;
66707;SDS011;53622;0.000;0.000;2023-05-19T06:38:56;5.20;;;4.03;;
66707;SDS011;53622;0.000;0.000;2023-05-19T06:41:30;6.70;;;5.97;;
66707;SDS011;53622;0.000;0.000;2023-05-19T06:43:59;8.52;;;6.50;;
66707;SDS011;53622;0.000;0.000;2023-05-19T06:46:32;7.85;;;6.13;;
66707;SDS011;53622;0.000;0.000;2023-05-19T06:49:01;9.23;;;7.03;;
66707;SDS011;53622;0.000;0.000;2023-05-19T06:51:37;9.38;;;6.20;;
66707;SDS011;53622;0.000;0.000;2023-05-19T06:54:07;7.53;;;6.82;;
66707;SDS011;53622;0.000;0.000;2023-05-19T06:56:37;7.65;;;6.68;;
66707;SDS011;53622;0.000;0.000;2023-05-19T06:59:06;6.82;;;6.22;;
66707;SDS011;53622;0.000;0.000;2023-05-19T07:01:36;8.80;;;6.57;;
66707;SDS011;53622;0.000;0.000;2023-05-19T07:04:06;7.63;;;6.43;;
66707;SDS011;53622;0.000;0.000;2023-05-19T07:06:36;7.20;;;6.50;;
66707;SDS011;53622;0.000;0.000;2023-05-19T07:09:07;7.47;;;5.88;;
66707;SDS011;53622;0.000;0.000;2023-05-19T07:11:38;6.68;;;6.00;;
66707;SDS011;53622;0.000;0.000;2023-05-19T07:14:09;7.00;;;6.32;;
66707;SDS011;53622;0.000;0.000;2023-05-19T07:16:39;6.70;;;6.10;;
66707;SDS011;53622;0.000;0.000;2023-05-19T07:19:09;6.75;;;6.15;;
66707;SDS011;53622;0.000;0.000;2023-05-19T07:21:40;7.25;;;5.72;;
66707;SDS011;53622;0.000;0.000;2023-05-19T07:24:09;7.40;;;5.82;;
66707;SDS011;53622;0.000;0.000;2023-05-19T07:26:39;6.10;;;5.55;;
66707;SDS011;53622;0.000;0.000;2023-05-19T07:29:08;6.18;;;5.60;;
66707;SDS011;53622;0.000;0.000;2023-05-19T07:31:38;6.00;;;5.43;;
66707;SDS011;53622;0.000;0.000;2023-05-19T07:34:07;6.75;;;6.00;;
66707;SDS011;53622;0.000;0.000;2023-05-19T07:36:36;6.25;;;5.53;;
66707;SDS011;53622;0.000;0.000;2023-05-19T07:39:07;9.48;;;6.43;;
66707;SDS011;53622;0.000;0.000;2023-05-19T07:41:37;10.00;;;5.40;;
66707;SDS011;53622;0.000;0.000;2023-05-19T07:44:06;7.93;;;5.90;;
66707;SDS011;53622;0.000;0.000;2023-05-19T07:46:36;8.05;;;5.28;;
66707;SDS011;53622;0.000;0.000;2023-05-19T07:49:05;5.40;;;4.90;;
66707;SDS011;53622;0.000;0.000;2023-05-19T07:51:35;8.18;;;5.22;;
66707;SDS011;53622;0.000;0.000;2023-05-19T07:54:04;7.32;;;4.97;;
66707;SDS011;53622;0.000;0.000;2023-05-19T07:56:35;8.48;;;4.50;;
66707;SDS011;53622;0.000;0.000;2023-05-19T07:59:05;6.38;;;4.72;;
66707;SDS011;53622;0.000;0.000;2023-05-19T08:01:34;5.25;;;4.43;;
66707;SDS011;53622;0.000;0.000;2023-05-19T08:04:04;4.50;;;3.92;;
66707;SDS011;53622;0.000;0.000;2023-05-19T08:06:37;5.97;;;4.18;;
66707;SDS011;53622;0.000;0.000;2023-05-19T08:09:06;6.72;;;4.18;;
66707;SDS011;53622;0.000;0.000;2023-05-19T08:11:37;5.63;;;3.78;;
66707;SDS011;53622;0.000;0.000;2023-05-19T08:14:06;4.55;;;3.97;;
66707;SDS011;53622;0.000;0.000;2023-05-19T08:16:37;4.40;;;4.00;;
66707;SDS011;53622;0.000;0.000;2023-05-19T08:19:08;5.15;;;3.58;;
66707;SDS011;53622;0.000;0.000;2023-05-19T08:21:37;5.95;;;4.05;;
66707;SDS011;53622;0.000;0.000;2023-05-19T08:24:08;6.97;;;3.88;;
66707;SDS011;53622;0.000;0.000;2023-05-19T08:26:39;10.82;;;4.22;;
66707;SDS011;53622;0.000;0.000;2023-05-19T08:29:09;8.25;;;3.78;;
66707;SDS011;53622;0.000;0.000;2023-05-19T08:31:38;8.15;;;3.83;;
66707;SDS011;53622;0.000;0.000;2023-05-19T08:34:07;10.15;;;3.95;;
66707;SDS011;53622;0.000;0.000;2023-05-19T08:36:37;7.60;;;3.90;;
66707;SDS011;53622;0.000;0.000;2023-05-19T08:39:06;6.65;;;3.78;;
66707;SDS011;53622;0.000;0.000;2023-05-19T08:41:36;7.50;;;3.47;;
66707;SDS011;53622;0.000;0.000;2023-05-19T08:44:06;6.22;;;3.20;;
66707;SDS011;53622;0.000;0.000;2023-05-19T08:46:36;6.15;;;3.88;;
66707;SDS011;53622;0.000;0.000;2023-05-19T08:49:07;4.32;;;3.58;;
66707;SDS011;53622;0.000;0.000;2023-05-19T08:51:40;4.82;;;3.53;;
66707;SDS011;53622;0.000;0.000;2023-05-19T08:54:15;4.57;;;3.15;;
66707;SDS011;53622;0.000;0.000;2023-05-19T08:56:46;4.00;;;3.45;;
66707;SDS011;53622;0.000;0.000;2023-05-19T08:59:17;5.97;;;3.28;;
66707;SDS011;53622;0.000;0.000;2023-05-19T09:01:48;6.85;;;3.28;;
66707;SDS011;53622;0.000;0.000;2023-05-19T09:04:18;7.55;;;3.65;;
66707;SDS011;53622;0.000;0.000;2023-05-19T09:06:48;6.22;;;2.88;;
66707;SDS011;53622;0.000;0.000;2023-05-19T09:09:17;4.07;;;3.17;;
66707;SDS011;53622;0.000;0.000;2023-05-19T09:11:47;3.50;;;3.10;;
66707;SDS011;53622;0.000;0.000;2023-05-19T09:14:17;8.43;;;3.42;;
66707;SDS011;53622;0.000;0.000;2023-05-19T09:16:47;8.68;;;3.30;;
66707;SDS011;53622;0.000;0.000;2023-05-19T09:19:19;5.57;;;3.13;;
66707;SDS011;53622;0.000;0.000;2023-05-19T09:21:56;6.55;;;2.97;;
66707;SDS011;53622;0.000;0.000;2023-05-19T09:24:27;4.82;;;3.13;;
66707;SDS011;53622;0.000;0.000;2023-05-19T09:26:57;5.75;;;3.15;;
66707;SDS011;53622;0.000;0.000;2023-05-19T09:29:28;5.63;;;3.13;;
66707;SDS011;53622;0.000;0.000;2023-05-19T09:31:57;5.82;;;3.08;;
66707;SDS011;53622;0.000;0.000;2023-05-19T09:34:30;6.63;;;2.97;;
66707;SDS011;53622;0.000;0.000;2023-05-19T09:37:00;7.35;;;3.30;;
66707;SDS011;53622;0.000;0.000;2023-05-19T09:39:30;6.15;;;3.50;;
66707;SDS011;53622;0.000;0.000;2023-05-19T09:41:59;6.03;;;3.40;;
66707;SDS011;53622;0.000;0.000;2023-05-19T09:44:35;5.07;;;3.50;;
66707;SDS011;53622;0.000;0.000;2023-05-19T09:47:04;10.02;;;3.88;;
66707;SDS011;53622;0.000;0.000;2023-05-19T09:49:37;8.00;;;3.70;;
66707;SDS011;53622;0.000;0.000;2023-05-19T09:52:14;5.60;;;3.40;;
66707;SDS011;53622;0.000;0.000;2023-05-19T09:54:44;4.90;;;3.05;;
66707;SDS011;53622;0.000;0.000;2023-05-19T09:57:14;4.05;;;3.00;;
66707;SDS011;53622;0.000;0.000;2023-05-19T09:59:45;7.07;;;3.03;;
66707;SDS011;53622;0.000;0.000;2023-05-19T10:02:15;6.30;;;3.42;;
66707;SDS011;53622;0.000;0.000;2023-05-19T10:04:47;5.65;;;3.17;;
66707;SDS011;53622;0.000;0.000;2023-05-19T10:07:18;5.57;;;3.10;;
66707;SDS011;53622;0.000;0.000;2023-05-19T10:09:50;3.80;;;2.90;;
66707;SDS011;53622;0.000;0.000;2023-05-19T10:12:24;8.27;;;3.20;;
66707;SDS011;53622;0.000;0.000;2023-05-19T10:14:56;5.95;;;3.30;;
66707;SDS011;53622;0.000;0.000;2023-05-19T10:17:27;3.80;;;2.80;;
66707;SDS011;53622;0.000;0.000;2023-05-19T10:19:56;7.25;;;2.70;;
66707;SDS011;53622;0.000;0.000;2023-05-19T10:22:28;5.32;;;2.80;;
66707;SDS011;53622;0.000;0.000;2023-05-19T10:24:57;3.70;;;3.13;;
66707;SDS011;53622;0.000;0.000;2023-05-19T10:27:27;8.00;;;2.97;;
66707;SDS011;53622;0.000;0.000;2023-05-19T10:29:59;7.93;;;2.90;;
66707;SDS011;53622;0.000;0.000;2023-05-19T10:32:37;9.82;;;2.55;;
66707;SDS011;53622;0.000;0.000;2023-05-19T10:38:06;3.47;;;2.67;;
66707;SDS011;53622;0.000;0.000;2023-05-19T10:40:48;3.80;;;2.72;;
66707;SDS011;53622;0.000;0.000;2023-05-19T10:43:24;2.90;;;2.55;;
66707;SDS011;53622;0.000;0.000;2023-05-19T10:46:04;5.47;;;2.70;;
66707;SDS011;53622;0.000;0.000;2023-05-19T10:48:33;5.70;;;2.75;;
66707;SDS011;53622;0.000;0.000;2023-05-19T10:51:03;3.05;;;2.30;;
66707;SDS011;53622;0.000;0.000;2023-05-19T10:53:39;4.32;;;2.50;;
66707;SDS011;53622;0.000;0.000;2023-05-19T10:56:26;4.63;;;2.97;;
66707;SDS011;53622;0.000;0.000;2023-05-19T10:58:57;7.80;;;2.63;;
66707;SDS011;53622;0.000;0.000;2023-05-19T11:01:31;4.85;;;2.97;;
66707;SDS011;53622;0.000;0.000;2023-05-19T11:04:04;6.75;;;2.85;;
66707;SDS011;53622;0.000;0.000;2023-05-19T11:06:37;4.70;;;2.92;;
66707;SDS011;53622;0.000;0.000;2023-05-19T11:09:11;3.97;;;2.55;;
66707;SDS011;53622;0.000;0.000;2023-05-19T11:11:45;3.63;;;2.38;;
66707;SDS011;53622;0.000;0.000;2023-05-19T11:14:16;3.80;;;2.42;;
66707;SDS011;53622;0.000;0.000;2023-05-19T11:16:48;4.22;;;2.70;;
66707;SDS011;53622;0.000;0.000;2023-05-19T11:19:19;3.85;;;2.50;;
66707;SDS011;53622;0.000;0.000;2023-05-19T11:21:55;4.50;;;2.53;;
66707;SDS011;53622;0.000;0.000;2023-05-19T11:24:37;2.67;;;2.47;;
66707;SDS011;53622;0.000;0.000;2023-05-19T11:27:17;4.03;;;2.33;;
66707;SDS011;53622;0.000;0.000;2023-05-19T11:29:58;3.38;;;2.78;;
66707;SDS011;53622;0.000;0.000;2023-05-19T11:32:33;3.67;;;2.83;;
66707;SDS011;53622;0.000;0.000;2023-05-19T11:35:05;3.95;;;2.50;;
66707;SDS011;53622;0.000;0.000;2023-05-19T11:37:36;3.42;;;2.40;;
66707;SDS011;53622;0.000;0.000;2023-05-19T11:40:07;4.35;;;2.50;;
66707;SDS011;53622;0.000;0.000;2023-05-19T11:42:37;3.15;;;2.47;;
66707;SDS011;53622;0.000;0.000;2023-05-19T11:45:07;3.05;;;2.42;;
66707;SDS011;53622;0.000;0.000;2023-05-19T11:47:38;5.50;;;2.55;;
66707;SDS011;53622;0.000;0.000;2023-05-19T11:50:27;5.05;;;2.45;;
66707;SDS011;53622;0.000;0.000;2023-05-19T11:52:58;4.38;;;2.50;;
66707;SDS011;53622;0.000;0.000;2023-05-19T11:55:29;5.72;;;2.30;;
66707;SDS011;53622;0.000;0.000;2023-05-19T11:57:58;4.38;;;2.45;;
66707;SDS011;53622;0.000;0.000;2023-05-19T12:00:33;6.47;;;2.90;;
66707;SDS011;53622;0.000;0.000;2023-05-19T12:03:07;3.53;;;2.53;;
66707;SDS011;53622;0.000;0.000;2023-05-19T12:05:37;4.20;;;2.72;;
66707;SDS011;53622;0.000;0.000;2023-05-19T12:08:12;4.22;;;2.45;;
66707;SDS011;53622;0.000;0.000;2023-05-19T12:10:41;3.35;;;2.38;;
66707;SDS011;53622;0.000;0.000;2023-05-19T12:13:12;3.67;;;2.78;;
66707;SDS011;53622;0.000;0.000;2023-05-19T12:15:42;5.80;;;2.83;;
66707;SDS011;53622;0.000;0.000;2023-05-19T12:18:12;3.78;;;2.78;;
66707;SDS011;53622;0.000;0.000;2023-05-19T12:20:42;2.85;;;2.40;;
66707;SDS011;53622;0.000;0.000;2023-05-19T12:23:11;3.25;;;2.42;;
66707;SDS011;53622;0.000;0.000;2023-05-19T12:25:42;3.47;;;2.63;;
66707;SDS011;53622;0.000;0.000;2023-05-19T12:28:12;4.10;;;2.50;;
66707;SDS011;53622;0.000;0.000;2023-05-19T12:30:46;4.57;;;2.60;;
66707;SDS011;53622;0.000;0.000;2023-05-19T12:33:19;2.97;;;2.55;;
66707;SDS011;53622;0.000;0.000;2023-05-19T12:35:50;5.03;;;2.50;;
66707;SDS011;53622;0.000;0.000;2023-05-19T12:38:21;3.00;;;2.55;;
66707;SDS011;53622;0.000;0.000;2023-05-19T12:40:50;5.95;;;2.30;;
66707;SDS011;53622;0.000;0.000;2023-05-19T12:43:20;2.75;;;2.40;;
66707;SDS011;53622;0.000;0.000;2023-05-19T12:45:50;3.13;;;2.40;;
66707;SDS011;53622;0.000;0.000;2023-05-19T12:48:21;3.40;;;2.40;;
66707;SDS011;53622;0.000;0.000;2023-05-19T12:50:51;3.95;;;2.53;;
66707;SDS011;53622;0.000;0.000;2023-05-19T12:53:24;5.32;;;2.42;;
66707;SDS011;53622;0.000;0.000;2023-05-19T12:55:54;6.10;;;2.60;;
66707;SDS011;53622;0.000;0.000;2023-05-19T12:58:23;2.25;;;2.05;;
66707;SDS011;53622;0.000;0.000;2023-05-19T13:00:57;5.50;;;2.60;;
66707;SDS011;53622;0.000;0.000;2023-05-19T13:03:28;4.68;;;2.40;;
66707;SDS011;53622;0.000;0.000;2023-05-19T13:05:58;3.17;;;2.45;;
66707;SDS011;53622;0.000;0.000;2023-05-19T13:08:27;2.65;;;2.45;;
66707;SDS011;53622;0.000;0.000;2023-05-19T13:10:56;6.28;;;2.28;;
66707;SDS011;53622;0.000;0.000;2023-05-19T13:13:25;4.60;;;2.55;;
66707;SDS011;53622;0.000;0.000;2023-05-19T13:15:54;3.10;;;2.60;;
66707;SDS011;53622;0.000;0.000;2023-05-19T13:18:24;3.50;;;2.75;;
66707;SDS011;53622;0.000;0.000;2023-05-19T13:20:55;2.60;;;2.10;;
66707;SDS011;53622;0.000;0.000;2023-05-19T13:23:24;6.15;;;2.45;;
66707;SDS011;53622;0.000;0.000;2023-05-19T13:25:53;7.78;;;2.80;;
66707;SDS011;53622;0.000;0.000;2023-05-19T13:28:23;11.00;;;2.60;;
66707;SDS011;53622;0.000;0.000;2023-05-19T13:30:52;13.80;;;2.90;;
66707;SDS011;53622;0.000;0.000;2023-05-19T13:33:21;8.40;;;2.88;;
66707;SDS011;53622;0.000;0.000;2023-05-19T13:35:51;8.70;;;2.80;;
66707;SDS011;53622;0.000;0.000;2023-05-19T13:38:22;5.60;;;2.80;;
66707;SDS011;53622;0.000;0.000;2023-05-19T13:40:51;5.95;;;2.50;;
66707;SDS011;53622;0.000;0.000;2023-05-19T13:43:20;8.18;;;2.85;;
66707;SDS011;53622;0.000;0.000;2023-05-19T13:45:50;9.57;;;3.30;;
66707;SDS011;53622;0.000;0.000;2023-05-19T13:48:19;9.80;;;2.90;;
66707;SDS011;53622;0.000;0.000;2023-05-19T13:50:48;4.13;;;2.35;;
66707;SDS011;53622;0.000;0.000;2023-05-19T13:53:21;8.65;;;2.85;;
66707;SDS011;53622;0.000;0.000;2023-05-19T13:55:52;7.43;;;3.10;;
66707;SDS011;53622;0.000;0.000;2023-05-19T13:58:23;6.55;;;2.83;;
66707;SDS011;53622;0.000;0.000;2023-05-19T14:00:52;6.93;;;2.70;;
66707;SDS011;53622;0.000;0.000;2023-05-19T14:03:23;6.15;;;2.72;;
66707;SDS011;53622;0.000;0.000;2023-05-19T14:05:52;8.88;;;2.80;;
66707;SDS011;53622;0.000;0.000;2023-05-19T14:08:23;7.28;;;3.30;;
66707;SDS011;53622;0.000;0.000;2023-05-19T14:10:53;9.85;;;2.63;;
66707;SDS011;53622;0.000;0.000;2023-05-19T14:13:24;6.60;;;3.03;;
66707;SDS011;53622;0.000;0.000;2023-05-19T14:16:02;7.47;;;2.60;;
66707;SDS011;53622;0.000;0.000;2023-05-19T14:18:32;4.38;;;2.85;;
66707;SDS011;53622;0.000;0.000;2023-05-19T14:21:02;5.85;;;2.72;;
66707;SDS011;53622;0.000;0.000;2023-05-19T14:23:33;3.72;;;2.72;;
66707;SDS011;53622;0.000;0.000;2023-05-19T14:26:02;4.00;;;2.75;;
66707;SDS011;53622;0.000;0.000;2023-05-19T14:28:31;5.57;;;2.83;;
66707;SDS011;53622;0.000;0.000;2023-05-19T14:31:01;6.75;;;2.90;;
66707;SDS011;53622;0.000;0.000;2023-05-19T14:33:32;3.17;;;2.65;;
66707;SDS011;53622;0.000;0.000;2023-05-19T14:36:02;4.13;;;2.50;;
66707;SDS011;53622;0.000;0.000;2023-05-19T14:38:33;7.43;;;2.95;;
66707;SDS011;53622;0.000;0.000;2023-05-19T14:41:03;6.40;;;2.80;;
66707;SDS011;53622;0.000;0.000;2023-05-19T14:43:33;5.65;;;2.50;;
66707;SDS011;53622;0.000;0.000;2023-05-19T14:46:03;5.85;;;2.67;;
66707;SDS011;53622;0.000;0.000;2023-05-19T14:48:32;6.15;;;2.92;;
66707;SDS011;53622;0.000;0.000;2023-05-19T14:51:02;4.45;;;2.80;;
66707;SDS011;53622;0.000;0.000;2023-05-19T14:53:32;3.60;;;2.72;;
66707;SDS011;53622;0.000;0.000;2023-05-19T14:56:03;7.13;;;2.60;;
66707;SDS011;53622;0.000;0.000;2023-05-19T14:58:33;7.65;;;2.67;;
66707;SDS011;53622;0.000;0.000;2023-05-19T15:01:02;5.30;;;2.67;;
66707;SDS011;53622;0.000;0.000;2023-05-19T15:03:31;4.80;;;2.80;;
66707;SDS011;53622;0.000;0.000;2023-05-19T15:06:01;5.13;;;2.90;;
66707;SDS011;53622;0.000;0.000;2023-05-19T15:08:31;11.00;;;2.75;;
66707;SDS011;53622;0.000;0.000;2023-05-19T15:11:01;6.97;;;2.85;;
66707;SDS011;53622;0.000;0.000;2023-05-19T15:13:31;5.65;;;3.08;;
66707;SDS011;53622;0.000;0.000;2023-05-19T15:16:00;7.00;;;3.20;;
66707;SDS011;53622;0.000;0.000;2023-05-19T15:18:43;6.40;;;2.95;;
66707;SDS011;53622;0.000;0.000;2023-05-19T15:21:13;9.10;;;2.67;;
66707;SDS011;53622;0.000;0.000;2023-05-19T15:23:43;8.20;;;2.67;;
66707;SDS011;53622;0.000;0.000;2023-05-19T15:26:14;6.15;;;2.83;;
66707;SDS011;53622;0.000;0.000;2023-05-19T15:28:43;5.68;;;2.63;;
66707;SDS011;53622;0.000;0.000;2023-05-19T15:31:13;10.95;;;3.13;;
66707;SDS011;53622;0.000;0.000;2023-05-19T15:33:42;3.83;;;2.50;;